Terminal Aerodrome Forecast
Issued by NWS

Home | Current Version | Previous Version | Text Only | Print | Product List | Glossary On
Versions: 1 2 3 4 5 6 7 8 9 10 11 12 13 14 15 16 17
000
FTUS45 KTFX 251700 RRA
TAFHLN
TAF
KHLN 251747Z 2518/2618 VRB05KT P6SM SCT010 BKN150
     FM252100 19007KT P6SM BKN150
     FM261000 23010KT P6SM SCT080 BKN120
     FM261500 26012KT P6SM BKN080=

USA.gov is the U.S. government's official web portal to all federal, state and local government web resources and services.